sensor_id;sensor_type;location;lat;lon;timestamp;P1;durP1;ratioP1;P2;durP2;ratioP2
18677;SDS011;9469;51.114;13.914;2023-03-01T00:04:13;35.73;;;18.77;;
18677;SDS011;9469;51.114;13.914;2023-03-01T00:09:18;30.43;;;18.20;;
18677;SDS011;9469;51.114;13.914;2023-03-01T00:14:23;29.53;;;17.47;;
18677;SDS011;9469;51.114;13.914;2023-03-01T00:19:31;30.20;;;18.90;;
18677;SDS011;9469;51.114;13.914;2023-03-01T00:24:36;30.90;;;18.20;;
18677;SDS011;9469;51.114;13.914;2023-03-01T00:29:40;36.20;;;19.10;;
18677;SDS011;9469;51.114;13.914;2023-03-01T00:34:48;26.23;;;17.47;;
18677;SDS011;9469;51.114;13.914;2023-03-01T00:39:58;30.90;;;19.33;;
18677;SDS011;9469;51.114;13.914;2023-03-01T00:45:03;26.97;;;16.93;;
18677;SDS011;9469;51.114;13.914;2023-03-01T00:50:13;32.77;;;18.80;;
18677;SDS011;9469;51.114;13.914;2023-03-01T00:55:20;30.43;;;18.13;;
18677;SDS011;9469;51.114;13.914;2023-03-01T01:00:25;29.57;;;18.47;;
18677;SDS011;9469;51.114;13.914;2023-03-01T01:05:33;27.60;;;18.13;;
18677;SDS011;9469;51.114;13.914;2023-03-01T01:10:38;30.20;;;18.53;;
18677;SDS011;9469;51.114;13.914;2023-03-01T01:15:44;30.47;;;19.07;;
18677;SDS011;9469;51.114;13.914;2023-03-01T01:20:51;26.33;;;17.67;;
18677;SDS011;9469;51.114;13.914;2023-03-01T01:25:56;29.73;;;16.53;;
18677;SDS011;9469;51.114;13.914;2023-03-01T01:31:01;26.33;;;16.10;;
18677;SDS011;9469;51.114;13.914;2023-03-01T01:36:10;24.73;;;17.00;;
18677;SDS011;9469;51.114;13.914;2023-03-01T01:41:15;23.90;;;16.23;;
18677;SDS011;9469;51.114;13.914;2023-03-01T01:46:22;29.47;;;17.83;;
18677;SDS011;9469;51.114;13.914;2023-03-01T01:51:37;27.53;;;17.57;;
18677;SDS011;9469;51.114;13.914;2023-03-01T01:56:46;29.87;;;15.83;;
18677;SDS011;9469;51.114;13.914;2023-03-01T02:01:56;28.47;;;17.80;;
18677;SDS011;9469;51.114;13.914;2023-03-01T02:07:07;25.47;;;16.93;;
18677;SDS011;9469;51.114;13.914;2023-03-01T02:12:18;24.40;;;17.13;;
18677;SDS011;9469;51.114;13.914;2023-03-01T02:17:26;26.57;;;17.73;;
18677;SDS011;9469;51.114;13.914;2023-03-01T02:22:34;26.30;;;16.83;;
18677;SDS011;9469;51.114;13.914;2023-03-01T02:27:45;24.67;;;16.13;;
18677;SDS011;9469;51.114;13.914;2023-03-01T02:32:58;26.80;;;16.70;;
18677;SDS011;9469;51.114;13.914;2023-03-01T02:38:07;27.17;;;16.37;;
18677;SDS011;9469;51.114;13.914;2023-03-01T02:43:13;24.37;;;16.07;;
18677;SDS011;9469;51.114;13.914;2023-03-01T02:48:21;25.97;;;16.57;;
18677;SDS011;9469;51.114;13.914;2023-03-01T02:53:28;22.83;;;16.30;;
18677;SDS011;9469;51.114;13.914;2023-03-01T02:58:42;26.63;;;16.40;;
18677;SDS011;9469;51.114;13.914;2023-03-01T03:03:56;26.90;;;16.80;;
18677;SDS011;9469;51.114;13.914;2023-03-01T03:09:01;26.77;;;16.93;;
18677;SDS011;9469;51.114;13.914;2023-03-01T03:14:08;25.17;;;15.73;;
18677;SDS011;9469;51.114;13.914;2023-03-01T03:19:20;30.67;;;18.20;;
18677;SDS011;9469;51.114;13.914;2023-03-01T03:24:25;24.33;;;16.73;;
18677;SDS011;9469;51.114;13.914;2023-03-01T03:29:39;26.17;;;16.50;;
18677;SDS011;9469;51.114;13.914;2023-03-01T03:34:49;25.93;;;16.43;;
18677;SDS011;9469;51.114;13.914;2023-03-01T03:39:54;26.47;;;16.57;;
18677;SDS011;9469;51.114;13.914;2023-03-01T03:44:59;26.60;;;17.20;;
18677;SDS011;9469;51.114;13.914;2023-03-01T03:50:07;26.83;;;17.50;;
18677;SDS011;9469;51.114;13.914;2023-03-01T03:55:13;24.10;;;14.73;;
18677;SDS011;9469;51.114;13.914;2023-03-01T04:00:21;26.10;;;16.43;;
18677;SDS011;9469;51.114;13.914;2023-03-01T04:05:29;27.93;;;17.07;;
18677;SDS011;9469;51.114;13.914;2023-03-01T04:10:35;23.57;;;16.93;;
18677;SDS011;9469;51.114;13.914;2023-03-01T04:15:42;29.63;;;15.33;;
18677;SDS011;9469;51.114;13.914;2023-03-01T04:20:50;26.23;;;15.40;;
18677;SDS011;9469;51.114;13.914;2023-03-01T04:25:59;23.77;;;15.47;;
18677;SDS011;9469;51.114;13.914;2023-03-01T04:31:05;24.57;;;15.50;;
18677;SDS011;9469;51.114;13.914;2023-03-01T04:36:20;26.67;;;16.87;;
18677;SDS011;9469;51.114;13.914;2023-03-01T04:41:27;27.27;;;15.50;;
18677;SDS011;9469;51.114;13.914;2023-03-01T04:46:34;25.50;;;15.87;;
18677;SDS011;9469;51.114;13.914;2023-03-01T04:51:42;24.27;;;15.60;;
18677;SDS011;9469;51.114;13.914;2023-03-01T04:56:47;29.27;;;18.03;;
18677;SDS011;9469;51.114;13.914;2023-03-01T05:01:55;23.73;;;15.97;;
18677;SDS011;9469;51.114;13.914;2023-03-01T05:07:04;26.77;;;15.73;;
18677;SDS011;9469;51.114;13.914;2023-03-01T05:12:09;25.13;;;16.67;;
18677;SDS011;9469;51.114;13.914;2023-03-01T05:17:14;28.73;;;16.90;;
18677;SDS011;9469;51.114;13.914;2023-03-01T05:22:22;26.43;;;16.97;;
18677;SDS011;9469;51.114;13.914;2023-03-01T05:27:27;24.70;;;16.93;;
18677;SDS011;9469;51.114;13.914;2023-03-01T05:32:32;25.03;;;16.03;;
18677;SDS011;9469;51.114;13.914;2023-03-01T05:37:40;26.97;;;16.53;;
18677;SDS011;9469;51.114;13.914;2023-03-01T05:42:46;29.93;;;18.33;;
18677;SDS011;9469;51.114;13.914;2023-03-01T05:47:53;28.27;;;16.80;;
18677;SDS011;9469;51.114;13.914;2023-03-01T05:53:02;32.07;;;17.43;;
18677;SDS011;9469;51.114;13.914;2023-03-01T05:58:11;24.37;;;16.03;;
18677;SDS011;9469;51.114;13.914;2023-03-01T06:03:18;23.30;;;16.03;;
18677;SDS011;9469;51.114;13.914;2023-03-01T06:08:26;30.17;;;16.63;;
18677;SDS011;9469;51.114;13.914;2023-03-01T06:13:33;29.37;;;17.23;;
18677;SDS011;9469;51.114;13.914;2023-03-01T06:18:38;25.67;;;16.93;;
18677;SDS011;9469;51.114;13.914;2023-03-01T06:23:46;29.77;;;18.10;;
18677;SDS011;9469;51.114;13.914;2023-03-01T06:28:53;29.13;;;17.80;;
18677;SDS011;9469;51.114;13.914;2023-03-01T06:34:02;31.63;;;18.23;;
18677;SDS011;9469;51.114;13.914;2023-03-01T06:39:10;36.07;;;21.33;;
18677;SDS011;9469;51.114;13.914;2023-03-01T06:44:15;34.50;;;20.97;;
18677;SDS011;9469;51.114;13.914;2023-03-01T06:49:20;31.73;;;19.87;;
18677;SDS011;9469;51.114;13.914;2023-03-01T06:54:32;31.20;;;21.00;;
18677;SDS011;9469;51.114;13.914;2023-03-01T06:59:38;36.23;;;21.17;;
18677;SDS011;9469;51.114;13.914;2023-03-01T07:04:43;34.90;;;21.33;;
18677;SDS011;9469;51.114;13.914;2023-03-01T07:09:53;37.40;;;21.37;;
18677;SDS011;9469;51.114;13.914;2023-03-01T07:14:59;30.50;;;20.10;;
18677;SDS011;9469;51.114;13.914;2023-03-01T07:20:04;41.57;;;23.67;;
18677;SDS011;9469;51.114;13.914;2023-03-01T07:25:14;41.77;;;24.13;;
18677;SDS011;9469;51.114;13.914;2023-03-01T07:30:19;32.43;;;21.37;;
18677;SDS011;9469;51.114;13.914;2023-03-01T07:35:27;34.47;;;22.97;;
18677;SDS011;9469;51.114;13.914;2023-03-01T07:40:37;30.73;;;20.13;;
18677;SDS011;9469;51.114;13.914;2023-03-01T07:45:45;35.00;;;19.80;;
18677;SDS011;9469;51.114;13.914;2023-03-01T07:50:50;24.60;;;18.60;;
18677;SDS011;9469;51.114;13.914;2023-03-01T07:56:06;27.17;;;18.50;;
18677;SDS011;9469;51.114;13.914;2023-03-01T08:01:15;26.07;;;19.37;;
18677;SDS011;9469;51.114;13.914;2023-03-01T08:06:36;28.50;;;20.37;;
18677;SDS011;9469;51.114;13.914;2023-03-01T08:11:44;26.90;;;18.97;;
18677;SDS011;9469;51.114;13.914;2023-03-01T08:16:49;31.77;;;22.13;;
18677;SDS011;9469;51.114;13.914;2023-03-01T08:21:54;30.53;;;21.23;;
18677;SDS011;9469;51.114;13.914;2023-03-01T08:27:05;30.90;;;21.47;;
18677;SDS011;9469;51.114;13.914;2023-03-01T08:32:10;33.20;;;22.03;;
18677;SDS011;9469;51.114;13.914;2023-03-01T08:37:15;31.27;;;21.60;;
18677;SDS011;9469;51.114;13.914;2023-03-01T08:42:24;31.83;;;22.20;;
18677;SDS011;9469;51.114;13.914;2023-03-01T08:47:30;34.60;;;22.27;;
18677;SDS011;9469;51.114;13.914;2023-03-01T08:52:44;29.40;;;19.57;;
18677;SDS011;9469;51.114;13.914;2023-03-01T08:57:52;30.07;;;21.93;;
18677;SDS011;9469;51.114;13.914;2023-03-01T09:02:57;30.27;;;22.10;;
18677;SDS011;9469;51.114;13.914;2023-03-01T09:08:02;37.30;;;21.27;;
18677;SDS011;9469;51.114;13.914;2023-03-01T09:13:13;33.80;;;20.30;;
18677;SDS011;9469;51.114;13.914;2023-03-01T09:18:18;30.43;;;21.50;;
18677;SDS011;9469;51.114;13.914;2023-03-01T09:23:24;38.07;;;22.50;;
18677;SDS011;9469;51.114;13.914;2023-03-01T09:28:32;28.43;;;21.10;;
18677;SDS011;9469;51.114;13.914;2023-03-01T09:33:37;32.00;;;20.07;;
18677;SDS011;9469;51.114;13.914;2023-03-01T09:38:43;29.40;;;20.80;;
18677;SDS011;9469;51.114;13.914;2023-03-01T09:43:53;38.07;;;21.10;;
18677;SDS011;9469;51.114;13.914;2023-03-01T09:49:07;33.97;;;21.70;;
18677;SDS011;9469;51.114;13.914;2023-03-01T09:54:21;25.27;;;20.07;;
18677;SDS011;9469;51.114;13.914;2023-03-01T09:59:30;25.23;;;20.07;;
18677;SDS011;9469;51.114;13.914;2023-03-01T10:04:46;31.37;;;20.13;;
18677;SDS011;9469;51.114;13.914;2023-03-01T10:09:54;25.53;;;17.87;;
18677;SDS011;9469;51.114;13.914;2023-03-01T10:15:11;27.70;;;17.50;;
18677;SDS011;9469;51.114;13.914;2023-03-01T10:20:19;28.57;;;18.00;;
18677;SDS011;9469;51.114;13.914;2023-03-01T10:25:35;26.17;;;19.13;;
18677;SDS011;9469;51.114;13.914;2023-03-01T10:30:51;29.13;;;19.23;;
18677;SDS011;9469;51.114;13.914;2023-03-01T10:35:58;25.50;;;17.47;;
18677;SDS011;9469;51.114;13.914;2023-03-01T10:41:05;23.97;;;17.57;;
18677;SDS011;9469;51.114;13.914;2023-03-01T10:46:25;22.80;;;17.27;;
18677;SDS011;9469;51.114;13.914;2023-03-01T10:51:32;23.30;;;16.90;;
18677;SDS011;9469;51.114;13.914;2023-03-01T10:56:45;23.10;;;16.37;;
18677;SDS011;9469;51.114;13.914;2023-03-01T11:02:16;27.17;;;15.73;;
18677;SDS011;9469;51.114;13.914;2023-03-01T11:07:26;31.43;;;16.90;;
18677;SDS011;9469;51.114;13.914;2023-03-01T11:12:31;22.93;;;13.70;;
18677;SDS011;9469;51.114;13.914;2023-03-01T11:17:39;22.07;;;13.93;;
18677;SDS011;9469;51.114;13.914;2023-03-01T11:22:58;26.40;;;16.90;;
18677;SDS011;9469;51.114;13.914;2023-03-01T11:28:10;37.87;;;17.23;;
18677;SDS011;9469;51.114;13.914;2023-03-01T11:33:28;25.37;;;17.70;;
18677;SDS011;9469;51.114;13.914;2023-03-01T11:38:40;30.40;;;17.73;;
18677;SDS011;9469;51.114;13.914;2023-03-01T11:43:49;29.37;;;18.50;;
18677;SDS011;9469;51.114;13.914;2023-03-01T11:49:06;34.10;;;18.87;;
18677;SDS011;9469;51.114;13.914;2023-03-01T11:54:40;64.60;;;21.23;;
18677;SDS011;9469;51.114;13.914;2023-03-01T12:00:11;30.40;;;18.10;;
18677;SDS011;9469;51.114;13.914;2023-03-01T12:05:41;26.20;;;17.50;;
18677;SDS011;9469;51.114;13.914;2023-03-01T12:10:57;27.80;;;17.17;;
18677;SDS011;9469;51.114;13.914;2023-03-01T12:16:18;27.43;;;18.07;;
18677;SDS011;9469;51.114;13.914;2023-03-01T12:22:04;29.47;;;18.93;;
18677;SDS011;9469;51.114;13.914;2023-03-01T12:28:01;30.73;;;19.13;;
18677;SDS011;9469;51.114;13.914;2023-03-01T12:33:26;37.97;;;20.70;;
18677;SDS011;9469;51.114;13.914;2023-03-01T12:38:45;27.87;;;18.20;;
18677;SDS011;9469;51.114;13.914;2023-03-01T12:43:58;32.43;;;19.67;;
18677;SDS011;9469;51.114;13.914;2023-03-01T12:49:15;28.73;;;18.43;;
18677;SDS011;9469;51.114;13.914;2023-03-01T12:54:28;28.40;;;18.10;;
18677;SDS011;9469;51.114;13.914;2023-03-01T12:59:36;27.70;;;20.43;;
18677;SDS011;9469;51.114;13.914;2023-03-01T13:04:52;31.23;;;18.40;;
18677;SDS011;9469;51.114;13.914;2023-03-01T13:10:15;43.93;;;20.73;;
18677;SDS011;9469;51.114;13.914;2023-03-01T13:15:27;31.33;;;18.47;;
18677;SDS011;9469;51.114;13.914;2023-03-01T13:20:45;27.00;;;19.43;;
18677;SDS011;9469;51.114;13.914;2023-03-01T13:26:06;35.43;;;19.47;;
18677;SDS011;9469;51.114;13.914;2023-03-01T13:37:10;25.70;;;17.33;;
18677;SDS011;9469;51.114;13.914;2023-03-01T13:42:33;30.03;;;18.17;;
18677;SDS011;9469;51.114;13.914;2023-03-01T13:47:57;30.63;;;18.83;;
18677;SDS011;9469;51.114;13.914;2023-03-01T13:53:06;30.17;;;18.93;;
18677;SDS011;9469;51.114;13.914;2023-03-01T13:58:19;26.27;;;17.63;;
18677;SDS011;9469;51.114;13.914;2023-03-01T14:03:27;27.73;;;18.07;;
18677;SDS011;9469;51.114;13.914;2023-03-01T14:08:35;32.17;;;19.50;;
18677;SDS011;9469;51.114;13.914;2023-03-01T14:13:51;28.23;;;18.03;;
18677;SDS011;9469;51.114;13.914;2023-03-01T14:19:12;31.73;;;18.33;;
18677;SDS011;9469;51.114;13.914;2023-03-01T14:24:35;29.87;;;17.97;;
18677;SDS011;9469;51.114;13.914;2023-03-01T14:29:53;23.53;;;16.37;;
18677;SDS011;9469;51.114;13.914;2023-03-01T14:35:00;26.67;;;16.63;;
18677;SDS011;9469;51.114;13.914;2023-03-01T14:40:21;30.70;;;17.50;;
18677;SDS011;9469;51.114;13.914;2023-03-01T14:45:31;29.33;;;16.43;;
18677;SDS011;9469;51.114;13.914;2023-03-01T14:50:40;29.93;;;18.00;;
18677;SDS011;9469;51.114;13.914;2023-03-01T14:55:47;30.07;;;16.77;;
18677;SDS011;9469;51.114;13.914;2023-03-01T15:00:59;27.97;;;17.70;;
18677;SDS011;9469;51.114;13.914;2023-03-01T15:06:07;24.37;;;16.57;;
18677;SDS011;9469;51.114;13.914;2023-03-01T15:11:19;23.17;;;15.83;;
18677;SDS011;9469;51.114;13.914;2023-03-01T15:16:30;25.47;;;16.40;;
18677;SDS011;9469;51.114;13.914;2023-03-01T15:21:42;25.70;;;16.23;;
18677;SDS011;9469;51.114;13.914;2023-03-01T15:26:51;25.93;;;15.83;;
18677;SDS011;9469;51.114;13.914;2023-03-01T15:32:05;22.17;;;15.17;;
18677;SDS011;9469;51.114;13.914;2023-03-01T15:37:39;24.53;;;15.87;;
18677;SDS011;9469;51.114;13.914;2023-03-01T15:42:49;24.70;;;16.37;;
18677;SDS011;9469;51.114;13.914;2023-03-01T15:48:03;25.80;;;16.67;;
18677;SDS011;9469;51.114;13.914;2023-03-01T15:53:11;21.90;;;14.67;;
18677;SDS011;9469;51.114;13.914;2023-03-01T15:58:21;18.90;;;13.03;;
18677;SDS011;9469;51.114;13.914;2023-03-01T16:03:31;19.00;;;13.00;;
18677;SDS011;9469;51.114;13.914;2023-03-01T16:08:37;24.73;;;13.73;;
18677;SDS011;9469;51.114;13.914;2023-03-01T16:13:45;23.20;;;13.33;;
18677;SDS011;9469;51.114;13.914;2023-03-01T16:18:54;21.27;;;13.43;;
18677;SDS011;9469;51.114;13.914;2023-03-01T16:23:59;24.70;;;13.50;;
18677;SDS011;9469;51.114;13.914;2023-03-01T16:29:04;33.80;;;13.23;;
18677;SDS011;9469;51.114;13.914;2023-03-01T16:34:12;16.50;;;11.33;;
18677;SDS011;9469;51.114;13.914;2023-03-01T16:39:17;22.53;;;12.27;;
18677;SDS011;9469;51.114;13.914;2023-03-01T16:44:22;27.97;;;13.70;;
18677;SDS011;9469;51.114;13.914;2023-03-01T16:49:30;21.83;;;13.07;;
18677;SDS011;9469;51.114;13.914;2023-03-01T16:54:35;27.07;;;13.80;;
18677;SDS011;9469;51.114;13.914;2023-03-01T16:59:40;34.03;;;13.83;;
18677;SDS011;9469;51.114;13.914;2023-03-01T17:04:50;25.13;;;13.67;;
18677;SDS011;9469;51.114;13.914;2023-03-01T17:09:57;23.73;;;11.87;;
18677;SDS011;9469;51.114;13.914;2023-03-01T17:15:02;28.33;;;12.30;;
18677;SDS011;9469;51.114;13.914;2023-03-01T17:20:12;20.60;;;11.13;;
18677;SDS011;9469;51.114;13.914;2023-03-01T17:25:18;27.33;;;13.00;;
18677;SDS011;9469;51.114;13.914;2023-03-01T17:30:23;38.23;;;17.13;;
18677;SDS011;9469;51.114;13.914;2023-03-01T17:35:31;26.13;;;14.57;;
18677;SDS011;9469;51.114;13.914;2023-03-01T17:40:38;23.50;;;15.07;;
18677;SDS011;9469;51.114;13.914;2023-03-01T17:45:46;26.70;;;15.63;;
18677;SDS011;9469;51.114;13.914;2023-03-01T17:50:57;25.77;;;13.83;;
18677;SDS011;9469;51.114;13.914;2023-03-01T17:56:03;32.20;;;15.23;;
18677;SDS011;9469;51.114;13.914;2023-03-01T18:01:12;27.70;;;15.73;;
18677;SDS011;9469;51.114;13.914;2023-03-01T18:06:21;22.37;;;13.83;;
18677;SDS011;9469;51.114;13.914;2023-03-01T18:11:28;34.03;;;15.03;;
18677;SDS011;9469;51.114;13.914;2023-03-01T18:16:34;24.93;;;14.53;;
18677;SDS011;9469;51.114;13.914;2023-03-01T18:21:42;21.27;;;13.50;;
18677;SDS011;9469;51.114;13.914;2023-03-01T18:26:47;22.07;;;14.87;;
18677;SDS011;9469;51.114;13.914;2023-03-01T18:31:52;29.87;;;14.87;;
18677;SDS011;9469;51.114;13.914;2023-03-01T18:37:03;26.07;;;14.40;;
18677;SDS011;9469;51.114;13.914;2023-03-01T18:42:10;29.13;;;15.23;;
18677;SDS011;9469;51.114;13.914;2023-03-01T18:47:17;25.37;;;14.80;;
18677;SDS011;9469;51.114;13.914;2023-03-01T18:52:27;31.47;;;18.07;;
18677;SDS011;9469;51.114;13.914;2023-03-01T18:57:32;30.43;;;17.77;;
18677;SDS011;9469;51.114;13.914;2023-03-01T19:02:36;31.83;;;17.10;;
18677;SDS011;9469;51.114;13.914;2023-03-01T19:07:44;34.07;;;19.03;;
18677;SDS011;9469;51.114;13.914;2023-03-01T19:12:49;36.47;;;22.67;;
18677;SDS011;9469;51.114;13.914;2023-03-01T19:17:54;35.13;;;22.13;;
18677;SDS011;9469;51.114;13.914;2023-03-01T19:23:02;39.77;;;24.33;;
18677;SDS011;9469;51.114;13.914;2023-03-01T19:28:07;29.07;;;15.73;;
18677;SDS011;9469;51.114;13.914;2023-03-01T19:33:12;28.30;;;18.43;;
18677;SDS011;9469;51.114;13.914;2023-03-01T19:38:20;28.10;;;19.23;;
18677;SDS011;9469;51.114;13.914;2023-03-01T19:43:28;34.10;;;18.33;;
18677;SDS011;9469;51.114;13.914;2023-03-01T19:48:33;28.50;;;19.53;;
18677;SDS011;9469;51.114;13.914;2023-03-01T19:53:43;31.43;;;18.03;;
18677;SDS011;9469;51.114;13.914;2023-03-01T19:58:48;35.30;;;22.73;;
18677;SDS011;9469;51.114;13.914;2023-03-01T20:04:01;33.40;;;21.80;;
18677;SDS011;9469;51.114;13.914;2023-03-01T20:09:13;31.53;;;19.37;;
18677;SDS011;9469;51.114;13.914;2023-03-01T20:14:23;34.17;;;20.60;;
18677;SDS011;9469;51.114;13.914;2023-03-01T20:19:29;33.43;;;20.63;;
18677;SDS011;9469;51.114;13.914;2023-03-01T20:24:36;29.27;;;18.83;;
18677;SDS011;9469;51.114;13.914;2023-03-01T20:29:42;29.13;;;17.27;;
18677;SDS011;9469;51.114;13.914;2023-03-01T20:34:47;30.63;;;18.50;;
18677;SDS011;9469;51.114;13.914;2023-03-01T20:39:56;31.37;;;19.67;;
18677;SDS011;9469;51.114;13.914;2023-03-01T20:45:01;36.30;;;20.93;;
18677;SDS011;9469;51.114;13.914;2023-03-01T20:50:08;36.43;;;20.40;;
18677;SDS011;9469;51.114;13.914;2023-03-01T20:55:17;36.57;;;21.60;;
18677;SDS011;9469;51.114;13.914;2023-03-01T21:00:24;37.37;;;20.30;;
18677;SDS011;9469;51.114;13.914;2023-03-01T21:05:30;35.77;;;19.67;;
18677;SDS011;9469;51.114;13.914;2023-03-01T21:10:38;34.53;;;20.63;;
18677;SDS011;9469;51.114;13.914;2023-03-01T21:15:50;28.97;;;18.00;;
18677;SDS011;9469;51.114;13.914;2023-03-01T21:21:01;32.50;;;19.50;;
18677;SDS011;9469;51.114;13.914;2023-03-01T21:26:11;27.67;;;17.43;;
18677;SDS011;9469;51.114;13.914;2023-03-01T21:31:20;33.00;;;18.03;;
18677;SDS011;9469;51.114;13.914;2023-03-01T21:36:28;35.33;;;18.47;;
18677;SDS011;9469;51.114;13.914;2023-03-01T21:41:37;36.07;;;21.00;;
18677;SDS011;9469;51.114;13.914;2023-03-01T21:46:43;32.53;;;18.43;;
18677;SDS011;9469;51.114;13.914;2023-03-01T21:51:48;27.30;;;18.47;;
18677;SDS011;9469;51.114;13.914;2023-03-01T21:57:01;31.83;;;19.87;;
18677;SDS011;9469;51.114;13.914;2023-03-01T22:02:06;30.23;;;19.10;;
18677;SDS011;9469;51.114;13.914;2023-03-01T22:07:15;28.97;;;18.83;;
18677;SDS011;9469;51.114;13.914;2023-03-01T22:12:23;30.70;;;17.23;;
18677;SDS011;9469;51.114;13.914;2023-03-01T22:17:28;26.93;;;18.60;;
18677;SDS011;9469;51.114;13.914;2023-03-01T22:22:36;27.17;;;18.60;;
18677;SDS011;9469;51.114;13.914;2023-03-01T22:27:44;31.20;;;17.30;;
18677;SDS011;9469;51.114;13.914;2023-03-01T22:32:51;30.60;;;18.77;;
18677;SDS011;9469;51.114;13.914;2023-03-01T22:37:57;34.93;;;20.07;;
18677;SDS011;9469;51.114;13.914;2023-03-01T22:43:06;32.33;;;19.77;;
18677;SDS011;9469;51.114;13.914;2023-03-01T22:48:11;29.83;;;17.63;;
18677;SDS011;9469;51.114;13.914;2023-03-01T22:53:16;33.20;;;19.53;;
18677;SDS011;9469;51.114;13.914;2023-03-01T22:58:24;31.93;;;19.90;;
18677;SDS011;9469;51.114;13.914;2023-03-01T23:03:29;28.17;;;17.93;;
18677;SDS011;9469;51.114;13.914;2023-03-01T23:08:34;30.93;;;18.03;;
18677;SDS011;9469;51.114;13.914;2023-03-01T23:13:42;31.80;;;18.87;;
18677;SDS011;9469;51.114;13.914;2023-03-01T23:18:48;43.43;;;23.40;;
18677;SDS011;9469;51.114;13.914;2023-03-01T23:23:55;28.47;;;18.90;;
18677;SDS011;9469;51.114;13.914;2023-03-01T23:29:03;34.53;;;20.73;;
18677;SDS011;9469;51.114;13.914;2023-03-01T23:34:08;28.70;;;19.03;;
18677;SDS011;9469;51.114;13.914;2023-03-01T23:39:13;31.20;;;18.63;;
18677;SDS011;9469;51.114;13.914;2023-03-01T23:44:21;31.97;;;18.93;;
18677;SDS011;9469;51.114;13.914;2023-03-01T23:49:27;30.37;;;19.70;;
18677;SDS011;9469;51.114;13.914;2023-03-01T23:54:32;29.43;;;19.60;;
18677;SDS011;9469;51.114;13.914;2023-03-01T23:59:42;33.03;;;20.00;;
